createdAt,value
2022-10-22T00:00:18.590Z,20.80
2022-10-22T00:02:45.805Z,18.05
2022-10-22T00:05:13.379Z,20.20
2022-10-22T00:07:40.822Z,19.83
2022-10-22T00:10:08.392Z,18.85
2022-10-22T00:12:35.774Z,17.77
2022-10-22T00:15:03.674Z,17.73
2022-10-22T00:17:30.730Z,18.50
2022-10-22T00:19:57.798Z,19.85
2022-10-22T00:22:24.877Z,18.17
2022-10-22T00:24:51.997Z,18.75
2022-10-22T00:27:19.040Z,18.90
2022-10-22T00:29:46.157Z,18.58
2022-10-22T00:32:13.608Z,17.33
2022-10-22T00:34:40.685Z,19.02
2022-10-22T00:37:10.531Z,17.20
2022-10-22T00:39:37.637Z,16.83
2022-10-22T00:42:04.746Z,17.52
2022-10-22T00:44:50.268Z,18.17
2022-10-22T00:47:18.509Z,17.23
2022-10-22T00:49:46.117Z,16.98
2022-10-22T00:52:13.972Z,17.38
2022-10-22T00:54:41.712Z,16.25
2022-10-22T00:57:09.283Z,18.35
2022-10-22T00:59:37.157Z,16.35
2022-10-22T01:02:04.630Z,17.10
2022-10-22T01:04:31.687Z,16.30
2022-10-22T01:06:58.920Z,15.02
2022-10-22T01:09:38.067Z,16.30
2022-10-22T01:12:20.357Z,16.83
2022-10-22T01:14:50.375Z,17.90
2022-10-22T01:17:33.672Z,16.63
2022-10-22T01:20:19.702Z,17.77
2022-10-22T01:22:55.357Z,16.98
2022-10-22T01:25:49.085Z,14.52
2022-10-22T01:28:28.599Z,16.02
2022-10-22T01:31:00.099Z,16.02
2022-10-22T01:33:27.486Z,14.55
2022-10-22T01:35:54.666Z,17.08
2022-10-22T01:38:24.555Z,16.50
2022-10-22T01:40:51.788Z,17.48
2022-10-22T01:43:19.302Z,17.67
2022-10-22T01:45:51.613Z,17.48
2022-10-22T01:48:37.510Z,18.05
2022-10-22T01:51:12.350Z,16.75
2022-10-22T01:53:51.545Z,15.07
2022-10-22T01:56:18.593Z,15.07
2022-10-22T01:58:53.177Z,17.50
2022-10-22T02:01:36.279Z,16.58
2022-10-22T02:04:10.573Z,17.17
2022-10-22T02:06:39.834Z,14.60
2022-10-22T02:09:08.424Z,15.65
2022-10-22T02:11:36.267Z,14.88
2022-10-22T02:14:04.702Z,15.48
2022-10-22T02:16:37.158Z,17.17
2022-10-22T02:19:08.072Z,18.25
2022-10-22T02:21:35.187Z,16.30
2022-10-22T02:24:02.257Z,16.13
2022-10-22T02:26:33.637Z,15.75
2022-10-22T02:29:06.293Z,17.73
2022-10-22T02:31:34.757Z,16.40
2022-10-22T02:34:08.983Z,19.08
2022-10-22T02:36:37.306Z,16.50
2022-10-22T02:39:04.987Z,16.30
2022-10-22T02:41:32.248Z,17.38
2022-10-22T02:43:59.345Z,16.65
2022-10-22T02:46:26.554Z,16.60
2022-10-22T02:48:53.655Z,17.10
2022-10-22T02:51:20.809Z,18.15
2022-10-22T02:53:47.868Z,18.73
2022-10-22T02:56:14.917Z,19.30
2022-10-22T02:58:42.000Z,16.85
2022-10-22T03:01:11.256Z,16.48
2022-10-22T03:03:40.861Z,17.08
2022-10-22T03:06:08.096Z,18.02
2022-10-22T03:08:35.196Z,18.65
2022-10-22T03:11:02.292Z,18.67
2022-10-22T03:13:29.609Z,20.13
2022-10-22T03:15:56.908Z,19.20
2022-10-22T03:18:23.972Z,17.88
2022-10-22T03:20:51.037Z,17.40
2022-10-22T03:23:19.914Z,17.35
2022-10-22T03:25:48.575Z,16.90
2022-10-22T03:28:16.975Z,18.00
2022-10-22T03:30:44.067Z,19.95
2022-10-22T03:33:11.129Z,17.45
2022-10-22T03:35:41.355Z,18.00
2022-10-22T03:38:08.488Z,18.00
2022-10-22T03:40:35.721Z,17.13
2022-10-22T03:43:02.792Z,15.98
2022-10-22T03:45:29.912Z,18.25
2022-10-22T03:47:57.028Z,17.00
2022-10-22T03:50:24.115Z,18.05
2022-10-22T03:52:51.281Z,19.02
2022-10-22T03:55:18.347Z,18.88
2022-10-22T03:57:45.443Z,18.17
2022-10-22T04:00:12.640Z,17.15
2022-10-22T04:02:39.718Z,16.90
2022-10-22T04:05:07.118Z,19.02
2022-10-22T04:07:34.220Z,16.45
2022-10-22T04:10:01.356Z,17.85
2022-10-22T04:12:28.496Z,16.33
2022-10-22T04:14:55.572Z,19.88
2022-10-22T04:17:22.959Z,18.52
2022-10-22T04:19:50.018Z,18.65
2022-10-22T04:22:17.075Z,19.50
2022-10-22T04:24:44.173Z,18.40
2022-10-22T04:27:11.281Z,19.55
2022-10-22T04:29:38.341Z,18.45
2022-10-22T04:32:05.509Z,20.98
2022-10-22T04:34:32.611Z,19.45
2022-10-22T04:36:59.706Z,19.13
2022-10-22T04:39:26.879Z,19.30
2022-10-22T04:41:53.993Z,18.20
2022-10-22T04:44:21.044Z,18.00
2022-10-22T04:46:48.356Z,18.48
2022-10-22T04:49:15.520Z,17.50
2022-10-22T04:51:42.613Z,17.67
2022-10-22T04:54:09.701Z,18.90
2022-10-22T04:56:36.788Z,17.73
2022-10-22T04:59:05.760Z,17.65
2022-10-22T05:01:37.022Z,17.95
2022-10-22T05:04:08.518Z,17.20
2022-10-22T05:06:36.597Z,18.88
2022-10-22T05:09:08.068Z,15.80
2022-10-22T05:11:36.687Z,18.17
2022-10-22T05:14:05.204Z,16.23
2022-10-22T05:16:33.013Z,16.40
2022-10-22T05:19:01.451Z,16.25
2022-10-22T05:21:28.928Z,16.83
2022-10-22T05:23:56.499Z,15.02
2022-10-22T05:26:25.127Z,17.52
2022-10-22T05:28:52.476Z,17.02
2022-10-22T05:31:20.147Z,16.88
2022-10-22T05:33:47.597Z,14.48
2022-10-22T05:36:16.204Z,16.33
2022-10-22T05:38:43.274Z,17.73
2022-10-22T05:41:12.129Z,15.23
2022-10-22T05:43:39.569Z,15.57
2022-10-22T05:46:11.452Z,15.07
2022-10-22T05:48:38.934Z,15.90
2022-10-22T05:51:07.229Z,14.32
2022-10-22T05:53:34.965Z,15.88
2022-10-22T05:56:05.962Z,14.73
2022-10-22T05:58:33.389Z,13.63
2022-10-22T06:01:04.351Z,14.65
2022-10-22T06:03:31.878Z,13.60
2022-10-22T06:06:03.150Z,14.40
2022-10-22T06:08:30.754Z,14.40
2022-10-22T06:10:57.984Z,14.57
2022-10-22T06:13:25.102Z,14.35
2022-10-22T06:15:53.471Z,14.23
2022-10-22T06:18:21.080Z,14.45
2022-10-22T06:20:48.194Z,17.38
2022-10-22T06:23:15.805Z,17.27
2022-10-22T06:25:43.579Z,15.13
2022-10-22T06:28:10.795Z,14.23
2022-10-22T06:30:42.898Z,13.70
2022-10-22T06:33:12.877Z,15.23
2022-10-22T06:35:39.944Z,14.05
2022-10-22T06:38:07.061Z,14.45
2022-10-22T06:40:34.579Z,14.40
2022-10-22T06:43:01.683Z,13.45
2022-10-22T06:45:28.806Z,15.38
2022-10-22T06:47:56.169Z,17.95
2022-10-22T06:50:23.342Z,14.80
2022-10-22T06:52:50.461Z,16.10
2022-10-22T06:55:17.600Z,15.75
2022-10-22T06:57:44.664Z,14.10
2022-10-22T07:00:12.060Z,15.70
2022-10-22T07:02:39.551Z,13.60
2022-10-22T07:05:07.247Z,15.95
2022-10-22T07:07:34.340Z,15.23
2022-10-22T07:10:01.695Z,13.98
2022-10-22T07:12:29.017Z,13.10
2022-10-22T07:14:56.112Z,15.32
2022-10-22T07:17:23.216Z,13.63
2022-10-22T07:19:51.349Z,14.68
2022-10-22T07:22:19.339Z,13.13
2022-10-22T07:24:46.452Z,14.95
2022-10-22T07:27:13.519Z,15.45
2022-10-22T07:29:40.605Z,13.27
2022-10-22T07:32:09.133Z,16.13
2022-10-22T07:34:37.629Z,14.27
2022-10-22T07:37:06.937Z,14.90
2022-10-22T07:39:34.444Z,13.43
2022-10-22T07:42:01.558Z,14.45
2022-10-22T07:44:28.679Z,16.15
2022-10-22T07:46:55.796Z,13.10
2022-10-22T07:49:22.919Z,13.15
2022-10-22T07:51:53.089Z,14.13
2022-10-22T07:54:20.169Z,14.25
2022-10-22T07:56:51.205Z,24.30
2022-10-22T07:59:18.283Z,15.70
2022-10-22T08:01:46.904Z,15.45
2022-10-22T08:04:14.039Z,21.15
2022-10-22T08:06:44.580Z,18.17
2022-10-22T08:09:14.517Z,23.27
2022-10-22T08:11:41.811Z,23.27
2022-10-22T08:14:08.940Z,19.30
2022-10-22T08:16:36.052Z,15.27
2022-10-22T08:19:03.120Z,16.98
2022-10-22T08:21:30.959Z,14.07
2022-10-22T08:23:58.090Z,14.25
2022-10-22T08:26:25.389Z,13.68
2022-10-22T08:28:52.592Z,12.82
2022-10-22T08:31:22.490Z,15.48
2022-10-22T08:33:49.654Z,13.10
2022-10-22T08:36:16.811Z,14.23
2022-10-22T08:38:43.927Z,13.20
2022-10-22T08:41:13.256Z,12.93
2022-10-22T08:43:51.976Z,14.55
2022-10-22T08:46:30.990Z,13.48
2022-10-22T08:48:59.284Z,13.93
2022-10-22T08:51:30.363Z,13.07
2022-10-22T08:54:16.117Z,12.27
2022-10-22T08:57:01.307Z,15.32
2022-10-22T08:59:34.337Z,12.18
2022-10-22T09:02:02.523Z,12.98
2022-10-22T09:04:32.430Z,12.98
2022-10-22T09:07:00.303Z,11.30
2022-10-22T09:09:30.274Z,40.28
2022-10-22T09:11:58.718Z,16.70
2022-10-22T09:14:26.520Z,10.93
2022-10-22T09:17:12.360Z,10.98
2022-10-22T09:19:58.286Z,11.95
2022-10-22T09:22:45.286Z,10.45
2022-10-22T09:25:18.132Z,14.40
2022-10-22T09:27:45.426Z,13.68
2022-10-22T09:30:22.799Z,12.70
2022-10-22T09:32:55.521Z,11.73
2022-10-22T09:35:24.970Z,12.48
2022-10-22T09:37:55.042Z,11.82
2022-10-22T09:40:22.556Z,10.00
2022-10-22T09:42:50.038Z,10.40
2022-10-22T09:45:22.160Z,10.48
2022-10-22T09:48:01.588Z,12.40
2022-10-22T09:50:41.615Z,10.15
2022-10-22T09:53:23.187Z,15.73
2022-10-22T09:58:21.100Z,13.98
2022-10-22T10:00:52.112Z,11.10
2022-10-22T10:03:20.451Z,11.05
2022-10-22T10:05:49.478Z,12.73
2022-10-22T10:08:17.773Z,12.40
2022-10-22T10:10:53.211Z,12.32
2022-10-22T10:13:38.934Z,16.33
2022-10-22T10:16:09.168Z,23.98
2022-10-22T10:18:48.146Z,15.45
2022-10-22T10:21:32.202Z,21.92
2022-10-22T10:24:05.852Z,18.27
2022-10-22T10:26:51.916Z,27.20
2022-10-22T10:29:30.654Z,28.83
2022-10-22T10:32:21.138Z,20.42
2022-10-22T10:34:58.522Z,18.95
2022-10-22T10:37:27.096Z,16.55
2022-10-22T10:39:54.229Z,16.55
2022-10-22T10:42:21.382Z,20.45
2022-10-22T10:44:51.597Z,18.38
2022-10-22T10:47:48.385Z,13.20
2022-10-22T10:50:19.679Z,12.70
2022-10-22T10:53:05.142Z,15.75
2022-10-22T10:55:36.809Z,12.00
2022-10-22T10:58:12.694Z,12.93
2022-10-22T11:00:45.366Z,13.15
2022-10-22T11:03:27.494Z,23.15
2022-10-22T11:06:02.587Z,15.52
2022-10-22T11:08:32.787Z,17.35
2022-10-22T11:11:02.956Z,12.68
2022-10-22T11:13:56.202Z,15.43
2022-10-22T11:16:42.093Z,11.63
2022-10-22T11:19:49.812Z,11.30
2022-10-22T11:22:34.931Z,12.68
2022-10-22T11:25:06.575Z,12.48
2022-10-22T11:27:46.536Z,10.85
2022-10-22T11:30:18.638Z,16.02
2022-10-22T11:32:48.069Z,11.45
2022-10-22T11:35:25.559Z,12.93
2022-10-22T11:37:54.997Z,13.68
2022-10-22T11:40:38.593Z,12.93
2022-10-22T11:43:06.957Z,14.73
2022-10-22T11:45:38.714Z,15.82
2022-10-22T11:48:11.766Z,16.95
2022-10-22T11:50:45.000Z,14.43
2022-10-22T11:53:14.883Z,13.77
2022-10-22T11:55:48.423Z,14.98
2022-10-22T11:58:32.704Z,30.60
2022-10-22T12:01:02.859Z,17.38
2022-10-22T12:03:33.058Z,14.27
2022-10-22T12:06:08.394Z,19.50
2022-10-22T12:08:42.672Z,14.50
2022-10-22T12:11:12.910Z,14.60
2022-10-22T12:13:59.147Z,13.70
2022-10-22T12:16:56.905Z,13.65
2022-10-22T12:19:24.931Z,12.30
2022-10-22T12:21:56.611Z,12.30
2022-10-22T12:24:24.505Z,12.60
2022-10-22T12:26:52.677Z,18.98
2022-10-22T12:29:23.703Z,15.73
2022-10-22T12:31:51.042Z,12.65
2022-10-22T12:34:19.756Z,16.30
2022-10-22T12:36:47.616Z,42.17
2022-10-22T12:39:16.385Z,17.80
2022-10-22T12:41:46.858Z,16.23
2022-10-22T12:44:15.342Z,15.43
2022-10-22T12:46:43.581Z,15.30
2022-10-22T12:49:33.393Z,16.35
2022-10-22T12:52:02.000Z,20.40
2022-10-22T12:54:31.526Z,18.60
2022-10-22T12:56:58.716Z,17.95
2022-10-22T12:59:29.003Z,14.23
2022-10-22T13:01:56.891Z,14.57
2022-10-22T13:04:24.037Z,13.82
2022-10-22T13:06:52.517Z,15.93
2022-10-22T13:09:26.827Z,15.10
2022-10-22T13:11:55.114Z,17.65
2022-10-22T13:14:30.078Z,19.55
2022-10-22T13:17:24.667Z,22.60
2022-10-22T13:19:54.629Z,16.52
2022-10-22T13:22:27.680Z,28.02
2022-10-22T13:27:24.513Z,14.65
2022-10-22T13:29:51.638Z,27.75
2022-10-22T13:32:40.123Z,14.93
2022-10-22T13:35:07.377Z,14.80
2022-10-22T13:37:35.613Z,13.20
2022-10-22T13:40:03.560Z,14.57
2022-10-22T13:42:32.815Z,14.77
2022-10-22T13:45:00.024Z,16.65
2022-10-22T13:47:28.685Z,15.30
2022-10-22T13:49:59.971Z,14.77
2022-10-22T13:52:32.524Z,18.30
2022-10-22T13:54:59.966Z,18.25
2022-10-22T13:57:27.381Z,16.88
2022-10-22T13:59:54.599Z,23.52
2022-10-22T14:02:24.705Z,41.22
2022-10-22T14:04:52.362Z,19.98
2022-10-22T14:07:19.736Z,20.77
2022-10-22T14:09:46.971Z,15.57
2022-10-22T14:12:15.798Z,19.10
2022-10-22T14:14:43.673Z,22.00
2022-10-22T14:17:16.746Z,17.63
2022-10-22T14:19:45.804Z,20.08
2022-10-22T14:22:16.937Z,32.65
2022-10-22T14:24:44.130Z,50.00
2022-10-22T14:27:12.584Z,32.17
2022-10-22T14:29:39.795Z,46.90
2022-10-22T14:32:12.728Z,27.17
2022-10-22T14:34:40.211Z,52.45
2022-10-22T14:37:14.444Z,41.47
2022-10-22T14:39:41.573Z,26.55
2022-10-22T14:42:10.114Z,24.13
2022-10-22T14:44:37.326Z,20.35
2022-10-22T14:47:04.437Z,22.25
2022-10-22T14:49:31.635Z,19.70
2022-10-22T14:51:58.781Z,19.33
2022-10-22T14:54:25.877Z,26.73
2022-10-22T14:56:52.949Z,24.92
2022-10-22T14:59:20.103Z,20.02
2022-10-22T15:01:47.197Z,21.60
2022-10-22T15:04:14.284Z,20.70
2022-10-22T15:06:41.458Z,22.85
2022-10-22T15:09:08.584Z,28.35
2022-10-22T15:11:35.709Z,32.47
2022-10-22T15:14:02.900Z,22.02
2022-10-22T15:16:30.220Z,23.83
2022-10-22T15:18:57.415Z,21.45
2022-10-22T15:21:24.756Z,25.23
2022-10-22T15:23:51.841Z,21.70
2022-10-22T15:26:18.991Z,23.17
2022-10-22T15:28:46.147Z,20.75
2022-10-22T15:31:14.612Z,28.10
2022-10-22T15:33:42.656Z,20.65
2022-10-22T15:36:14.271Z,24.45
2022-10-22T15:38:41.553Z,21.58
2022-10-22T15:41:10.178Z,24.42
2022-10-22T15:43:37.499Z,22.42
2022-10-22T15:46:15.504Z,24.05
2022-10-22T15:48:42.801Z,34.55
2022-10-22T15:51:11.320Z,25.77
2022-10-22T15:53:38.563Z,26.10
2022-10-22T15:56:07.810Z,28.17
2022-10-22T15:58:35.010Z,25.15
2022-10-22T16:01:06.342Z,26.30
2022-10-22T16:03:33.699Z,27.25
2022-10-22T16:06:01.019Z,26.88
2022-10-22T16:08:28.531Z,32.60
2022-10-22T16:10:55.745Z,31.67
2022-10-22T16:13:24.737Z,27.98
2022-10-22T16:15:52.264Z,27.50
2022-10-22T16:18:20.161Z,26.17
2022-10-22T16:20:47.316Z,26.70
2022-10-22T16:23:18.556Z,26.42
2022-10-22T16:25:46.520Z,26.95
2022-10-22T16:28:13.885Z,26.92
2022-10-22T16:30:41.806Z,32.05
2022-10-22T16:33:09.719Z,27.67
2022-10-22T16:35:40.394Z,31.10
2022-10-22T16:38:07.649Z,27.27
2022-10-22T16:40:34.906Z,28.42
2022-10-22T16:43:02.135Z,28.15
2022-10-22T16:45:29.354Z,35.20
2022-10-22T16:47:57.133Z,32.60
2022-10-22T16:50:24.404Z,32.38
2022-10-22T16:52:51.721Z,30.05
2022-10-22T16:55:19.018Z,32.15
2022-10-22T16:57:50.726Z,31.00
2022-10-22T17:00:18.053Z,30.20
2022-10-22T17:02:45.328Z,29.90
2022-10-22T17:05:12.558Z,34.22
2022-10-22T17:07:39.785Z,34.22
2022-10-22T17:10:09.049Z,32.67
2022-10-22T17:12:36.918Z,26.95
2022-10-22T17:15:05.226Z,31.67
2022-10-22T17:17:32.668Z,30.15
2022-10-22T17:20:00.350Z,31.65
2022-10-22T17:22:30.992Z,31.17
2022-10-22T17:25:09.539Z,36.85
2022-10-22T17:27:36.695Z,34.85
2022-10-22T17:30:04.452Z,32.97
2022-10-22T17:32:31.621Z,32.38
2022-10-22T17:34:58.771Z,31.08
2022-10-22T17:37:26.011Z,32.65
2022-10-22T17:39:53.166Z,32.60
2022-10-22T17:42:20.264Z,35.10
2022-10-22T17:44:47.375Z,39.08
2022-10-22T17:47:15.033Z,34.97
2022-10-22T17:49:42.209Z,32.80
2022-10-22T17:52:11.468Z,31.90
2022-10-22T17:54:38.627Z,41.10
2022-10-22T17:57:05.723Z,32.17
2022-10-22T17:59:33.177Z,32.67
2022-10-22T18:02:02.268Z,50.15
2022-10-22T18:04:30.567Z,34.28
2022-10-22T18:06:57.882Z,39.60
2022-10-22T18:09:25.660Z,37.92
2022-10-22T18:11:53.623Z,36.53
2022-10-22T18:14:21.442Z,36.17
2022-10-22T18:16:48.634Z,33.28
2022-10-22T18:19:16.779Z,55.75
2022-10-22T18:21:43.907Z,42.72
2022-10-22T18:24:11.423Z,32.35
2022-10-22T18:26:38.523Z,35.13
2022-10-22T18:29:05.748Z,36.97
2022-10-22T18:31:32.996Z,32.88
2022-10-22T18:34:00.420Z,37.47
2022-10-22T18:36:28.083Z,35.50
2022-10-22T18:38:56.435Z,36.30
2022-10-22T18:41:23.604Z,39.13
2022-10-22T18:43:54.629Z,42.67
2022-10-22T18:46:21.896Z,37.28
2022-10-22T18:48:49.001Z,57.45
2022-10-22T18:51:16.209Z,44.95
2022-10-22T18:53:53.570Z,38.28
2022-10-22T18:56:30.568Z,59.65
2022-10-22T18:58:57.615Z,43.30
2022-10-22T19:01:26.036Z,46.63
2022-10-22T19:03:53.247Z,42.50
2022-10-22T19:06:26.048Z,42.35
2022-10-22T19:08:53.509Z,44.80
2022-10-22T19:11:20.875Z,42.72
2022-10-22T19:13:48.148Z,52.08
2022-10-22T19:16:18.410Z,48.38
2022-10-22T19:18:45.543Z,42.80
2022-10-22T19:21:12.881Z,44.55
2022-10-22T19:23:40.171Z,50.88
2022-10-22T19:26:07.361Z,46.50
2022-10-22T19:28:34.668Z,42.38
2022-10-22T19:31:01.803Z,37.53
2022-10-22T19:33:32.798Z,37.70
2022-10-22T19:36:03.898Z,33.80
2022-10-22T19:38:31.128Z,37.25
2022-10-22T19:40:58.272Z,33.55
2022-10-22T19:43:26.407Z,35.80
2022-10-22T19:45:53.575Z,39.78
2022-10-22T19:48:20.717Z,32.17
2022-10-22T19:50:48.033Z,32.83
2022-10-22T19:53:15.131Z,31.90
2022-10-22T19:55:45.592Z,28.50
2022-10-22T19:58:13.075Z,28.33
2022-10-22T20:00:40.238Z,31.48
2022-10-22T20:03:07.524Z,24.27
2022-10-22T20:05:37.896Z,25.00
2022-10-22T20:08:05.105Z,23.65
2022-10-22T20:10:33.108Z,25.17
2022-10-22T20:13:00.295Z,27.67
2022-10-22T20:15:27.518Z,24.73
2022-10-22T20:17:54.747Z,23.73
2022-10-22T20:20:26.224Z,23.70
2022-10-22T20:22:54.170Z,23.92
2022-10-22T20:25:21.804Z,25.60
2022-10-22T20:27:48.896Z,25.30
2022-10-22T20:32:48.819Z,24.60
2022-10-22T20:35:15.969Z,24.92
2022-10-22T20:37:43.121Z,22.25
2022-10-22T20:40:10.525Z,23.70
2022-10-22T20:42:38.069Z,24.90
2022-10-22T20:45:06.506Z,27.67
2022-10-22T20:47:44.509Z,27.27
2022-10-22T20:50:19.693Z,22.73
2022-10-22T20:52:46.851Z,20.02
2022-10-22T20:57:46.623Z,18.50
2022-10-22T21:00:15.567Z,18.13
2022-10-22T21:02:45.825Z,17.70
2022-10-22T21:05:12.927Z,20.25
2022-10-22T21:07:40.211Z,18.50
2022-10-22T21:10:07.841Z,17.77
2022-10-22T21:12:35.048Z,18.65
2022-10-22T21:15:02.165Z,18.33
2022-10-22T21:17:29.267Z,17.48
2022-10-22T21:19:56.439Z,15.65
2022-10-22T21:22:23.584Z,12.70
2022-10-22T21:24:50.670Z,13.23
2022-10-22T21:27:17.859Z,13.02
2022-10-22T21:29:44.998Z,11.75
2022-10-22T21:32:12.094Z,11.57
2022-10-22T21:34:39.233Z,12.13
2022-10-22T21:37:06.439Z,12.45
2022-10-22T21:39:39.651Z,13.15
2022-10-22T21:42:09.155Z,12.55
2022-10-22T21:44:36.249Z,12.65
2022-10-22T21:47:03.339Z,10.57
2022-10-22T21:49:30.426Z,10.77
2022-10-22T21:51:59.909Z,10.25
2022-10-22T21:54:27.077Z,10.85
2022-10-22T21:56:54.323Z,10.95
2022-10-22T21:59:21.478Z,10.25
2022-10-22T22:01:48.642Z,11.65
2022-10-22T22:04:15.899Z,10.65
2022-10-22T22:06:42.989Z,10.45
2022-10-22T22:09:10.142Z,10.63
2022-10-22T22:11:42.952Z,11.02
2022-10-22T22:14:10.098Z,9.82
2022-10-22T22:16:37.248Z,10.70
2022-10-22T22:19:06.682Z,10.95
2022-10-22T22:21:33.920Z,11.10
2022-10-22T22:24:01.400Z,10.82
2022-10-22T22:26:29.871Z,11.80
2022-10-22T22:28:57.842Z,10.90
2022-10-22T22:31:25.077Z,11.35
2022-10-22T22:33:52.949Z,11.35
2022-10-22T22:36:20.045Z,10.90
2022-10-22T22:38:47.172Z,12.02
2022-10-22T22:41:14.343Z,12.80
2022-10-22T22:43:41.491Z,12.07
2022-10-22T22:46:10.840Z,14.80
2022-10-22T22:48:38.031Z,11.55
2022-10-22T22:51:05.948Z,11.55
2022-10-22T22:53:33.671Z,11.70
2022-10-22T22:56:03.882Z,13.98
2022-10-22T22:58:31.238Z,13.90
2022-10-22T23:01:09.005Z,12.98
2022-10-22T23:03:36.250Z,12.40
2022-10-22T23:06:03.398Z,14.30
2022-10-22T23:08:30.521Z,13.70
2022-10-22T23:11:02.328Z,12.60
2022-10-22T23:13:29.426Z,12.98
2022-10-22T23:15:56.576Z,13.15
2022-10-22T23:18:23.879Z,11.43
2022-10-22T23:20:51.006Z,11.93
2022-10-22T23:23:18.074Z,12.52
2022-10-22T23:25:45.272Z,13.73
2022-10-22T23:28:12.904Z,12.82
2022-10-22T23:30:44.992Z,11.75
2022-10-22T23:33:12.465Z,14.02
2022-10-22T23:35:41.428Z,11.88
2022-10-22T23:38:08.777Z,13.15
2022-10-22T23:40:35.892Z,12.43
2022-10-22T23:43:03.494Z,13.25
2022-10-22T23:45:30.700Z,12.40
2022-10-22T23:47:57.794Z,11.68
2022-10-22T23:50:24.970Z,11.88
2022-10-22T23:52:52.154Z,11.60
2022-10-22T23:55:19.824Z,12.73
2022-10-22T23:57:47.085Z,12.82
